sensor_id;sensor_type;location;lat;lon;timestamp;P1;durP1;ratioP1;P2;durP2;ratioP2
11933;SDS011;6026;48.784;9.198;2024-01-30T00:01:19;0.13;;;0.13;;
11933;SDS011;6026;48.784;9.198;2024-01-30T00:03:44;0.10;;;0.10;;
11933;SDS011;6026;48.784;9.198;2024-01-30T00:06:11;0.20;;;0.20;;
11933;SDS011;6026;48.784;9.198;2024-01-30T00:08:37;0.20;;;0.20;;
11933;SDS011;6026;48.784;9.198;2024-01-30T00:11:02;0.20;;;0.20;;
11933;SDS011;6026;48.784;9.198;2024-01-30T00:13:28;0.17;;;0.17;;
11933;SDS011;6026;48.784;9.198;2024-01-30T00:15:54;0.10;;;0.10;;
11933;SDS011;6026;48.784;9.198;2024-01-30T00:18:19;0.10;;;0.10;;
11933;SDS011;6026;48.784;9.198;2024-01-30T00:20:45;0.10;;;0.10;;
11933;SDS011;6026;48.784;9.198;2024-01-30T00:23:10;0.20;;;0.20;;
11933;SDS011;6026;48.784;9.198;2024-01-30T00:25:36;0.10;;;0.10;;
11933;SDS011;6026;48.784;9.198;2024-01-30T00:28:02;0.10;;;0.10;;
11933;SDS011;6026;48.784;9.198;2024-01-30T00:30:27;0.10;;;0.10;;
11933;SDS011;6026;48.784;9.198;2024-01-30T00:32:53;0.20;;;0.20;;
11933;SDS011;6026;48.784;9.198;2024-01-30T00:35:19;0.20;;;0.20;;
11933;SDS011;6026;48.784;9.198;2024-01-30T00:37:47;0.10;;;0.10;;
11933;SDS011;6026;48.784;9.198;2024-01-30T00:40:12;0.10;;;0.10;;
11933;SDS011;6026;48.784;9.198;2024-01-30T00:42:41;0.10;;;0.10;;
11933;SDS011;6026;48.784;9.198;2024-01-30T00:45:11;0.10;;;0.10;;
11933;SDS011;6026;48.784;9.198;2024-01-30T00:47:40;0.10;;;0.10;;
11933;SDS011;6026;48.784;9.198;2024-01-30T00:50:07;0.20;;;0.20;;
11933;SDS011;6026;48.784;9.198;2024-01-30T00:52:32;0.30;;;0.30;;
11933;SDS011;6026;48.784;9.198;2024-01-30T00:54:58;0.20;;;0.20;;
11933;SDS011;6026;48.784;9.198;2024-01-30T00:57:24;0.30;;;0.30;;
11933;SDS011;6026;48.784;9.198;2024-01-30T00:59:50;0.10;;;0.10;;
11933;SDS011;6026;48.784;9.198;2024-01-30T01:02:15;0.10;;;0.10;;
11933;SDS011;6026;48.784;9.198;2024-01-30T01:04:42;0.10;;;0.10;;
11933;SDS011;6026;48.784;9.198;2024-01-30T01:07:09;0.20;;;0.20;;
11933;SDS011;6026;48.784;9.198;2024-01-30T01:09:35;0.10;;;0.10;;
11933;SDS011;6026;48.784;9.198;2024-01-30T01:12:01;0.10;;;0.10;;
11933;SDS011;6026;48.784;9.198;2024-01-30T01:14:27;0.20;;;0.20;;
11933;SDS011;6026;48.784;9.198;2024-01-30T01:16:52;0.20;;;0.20;;
11933;SDS011;6026;48.784;9.198;2024-01-30T01:19:18;0.10;;;0.10;;
11933;SDS011;6026;48.784;9.198;2024-01-30T01:21:43;0.10;;;0.10;;
11933;SDS011;6026;48.784;9.198;2024-01-30T01:24:09;0.10;;;0.10;;
11933;SDS011;6026;48.784;9.198;2024-01-30T01:26:34;0.20;;;0.20;;
11933;SDS011;6026;48.784;9.198;2024-01-30T01:29:00;0.20;;;0.20;;
11933;SDS011;6026;48.784;9.198;2024-01-30T01:31:25;0.03;;;0.03;;
11933;SDS011;6026;48.784;9.198;2024-01-30T01:33:54;0.10;;;0.10;;
11933;SDS011;6026;48.784;9.198;2024-01-30T01:36:20;0.10;;;0.10;;
11933;SDS011;6026;48.784;9.198;2024-01-30T01:38:46;0.10;;;0.10;;
11933;SDS011;6026;48.784;9.198;2024-01-30T01:41:11;0.17;;;0.17;;
11933;SDS011;6026;48.784;9.198;2024-01-30T01:43:37;0.10;;;0.10;;
11933;SDS011;6026;48.784;9.198;2024-01-30T01:46:04;0.20;;;0.20;;
11933;SDS011;6026;48.784;9.198;2024-01-30T01:48:30;0.10;;;0.10;;
11933;SDS011;6026;48.784;9.198;2024-01-30T01:50:55;0.20;;;0.20;;
11933;SDS011;6026;48.784;9.198;2024-01-30T01:53:21;0.10;;;0.10;;
11933;SDS011;6026;48.784;9.198;2024-01-30T01:55:47;0.40;;;0.40;;
11933;SDS011;6026;48.784;9.198;2024-01-30T01:58:13;0.00;;;0.00;;
11933;SDS011;6026;48.784;9.198;2024-01-30T02:00:39;0.00;;;0.00;;
11933;SDS011;6026;48.784;9.198;2024-01-30T02:03:07;0.10;;;0.10;;
11933;SDS011;6026;48.784;9.198;2024-01-30T02:05:35;0.20;;;0.20;;
11933;SDS011;6026;48.784;9.198;2024-01-30T02:08:05;0.10;;;0.10;;
11933;SDS011;6026;48.784;9.198;2024-01-30T02:10:31;0.10;;;0.10;;
11933;SDS011;6026;48.784;9.198;2024-01-30T02:12:56;0.10;;;0.10;;
11933;SDS011;6026;48.784;9.198;2024-01-30T02:15:22;0.10;;;0.10;;
11933;SDS011;6026;48.784;9.198;2024-01-30T02:17:47;0.10;;;0.10;;
11933;SDS011;6026;48.784;9.198;2024-01-30T02:20:13;0.00;;;0.00;;
11933;SDS011;6026;48.784;9.198;2024-01-30T02:22:38;0.10;;;0.10;;
11933;SDS011;6026;48.784;9.198;2024-01-30T02:25:06;0.20;;;0.20;;
11933;SDS011;6026;48.784;9.198;2024-01-30T02:27:32;0.10;;;0.10;;
11933;SDS011;6026;48.784;9.198;2024-01-30T02:29:57;0.17;;;0.17;;
11933;SDS011;6026;48.784;9.198;2024-01-30T02:32:23;0.10;;;0.10;;
11933;SDS011;6026;48.784;9.198;2024-01-30T02:34:48;0.10;;;0.10;;
11933;SDS011;6026;48.784;9.198;2024-01-30T02:37:14;0.10;;;0.10;;
11933;SDS011;6026;48.784;9.198;2024-01-30T02:39:39;0.10;;;0.10;;
11933;SDS011;6026;48.784;9.198;2024-01-30T02:42:05;0.10;;;0.10;;
11933;SDS011;6026;48.784;9.198;2024-01-30T02:44:31;0.17;;;0.17;;
11933;SDS011;6026;48.784;9.198;2024-01-30T02:46:56;0.10;;;0.10;;
11933;SDS011;6026;48.784;9.198;2024-01-30T02:49:22;0.07;;;0.07;;
11933;SDS011;6026;48.784;9.198;2024-01-30T02:51:47;0.10;;;0.10;;
11933;SDS011;6026;48.784;9.198;2024-01-30T02:54:13;0.10;;;0.10;;
11933;SDS011;6026;48.784;9.198;2024-01-30T02:56:38;0.10;;;0.10;;
11933;SDS011;6026;48.784;9.198;2024-01-30T02:59:04;0.20;;;0.20;;
11933;SDS011;6026;48.784;9.198;2024-01-30T03:01:30;0.23;;;0.23;;
11933;SDS011;6026;48.784;9.198;2024-01-30T03:03:56;0.20;;;0.20;;
11933;SDS011;6026;48.784;9.198;2024-01-30T03:06:22;0.10;;;0.10;;
11933;SDS011;6026;48.784;9.198;2024-01-30T03:08:48;0.10;;;0.10;;
11933;SDS011;6026;48.784;9.198;2024-01-30T03:11:13;0.17;;;0.17;;
11933;SDS011;6026;48.784;9.198;2024-01-30T03:13:39;0.10;;;0.10;;
11933;SDS011;6026;48.784;9.198;2024-01-30T03:16:05;0.10;;;0.10;;
11933;SDS011;6026;48.784;9.198;2024-01-30T03:18:31;0.10;;;0.10;;
11933;SDS011;6026;48.784;9.198;2024-01-30T03:20:56;0.20;;;0.20;;
11933;SDS011;6026;48.784;9.198;2024-01-30T03:23:22;0.17;;;0.17;;
11933;SDS011;6026;48.784;9.198;2024-01-30T03:25:47;0.10;;;0.10;;
11933;SDS011;6026;48.784;9.198;2024-01-30T03:28:13;0.00;;;0.00;;
11933;SDS011;6026;48.784;9.198;2024-01-30T03:30:39;0.10;;;0.10;;
11933;SDS011;6026;48.784;9.198;2024-01-30T03:33:04;0.10;;;0.10;;
11933;SDS011;6026;48.784;9.198;2024-01-30T03:35:30;0.20;;;0.20;;
11933;SDS011;6026;48.784;9.198;2024-01-30T03:37:55;0.10;;;0.10;;
11933;SDS011;6026;48.784;9.198;2024-01-30T03:40:21;0.00;;;0.00;;
11933;SDS011;6026;48.784;9.198;2024-01-30T03:42:46;0.10;;;0.10;;
11933;SDS011;6026;48.784;9.198;2024-01-30T03:45:12;0.10;;;0.10;;
11933;SDS011;6026;48.784;9.198;2024-01-30T03:47:37;0.10;;;0.10;;
11933;SDS011;6026;48.784;9.198;2024-01-30T03:50:03;0.10;;;0.10;;
11933;SDS011;6026;48.784;9.198;2024-01-30T03:52:29;0.10;;;0.10;;
11933;SDS011;6026;48.784;9.198;2024-01-30T03:54:55;0.10;;;0.10;;
11933;SDS011;6026;48.784;9.198;2024-01-30T03:57:20;0.10;;;0.10;;
11933;SDS011;6026;48.784;9.198;2024-01-30T03:59:47;0.20;;;0.20;;
11933;SDS011;6026;48.784;9.198;2024-01-30T04:02:12;0.17;;;0.17;;
11933;SDS011;6026;48.784;9.198;2024-01-30T04:04:38;0.10;;;0.10;;
11933;SDS011;6026;48.784;9.198;2024-01-30T04:07:03;0.10;;;0.10;;
11933;SDS011;6026;48.784;9.198;2024-01-30T04:09:29;0.03;;;0.03;;
11933;SDS011;6026;48.784;9.198;2024-01-30T04:11:54;0.20;;;0.20;;
11933;SDS011;6026;48.784;9.198;2024-01-30T04:14:20;0.10;;;0.10;;
11933;SDS011;6026;48.784;9.198;2024-01-30T04:16:46;0.10;;;0.10;;
11933;SDS011;6026;48.784;9.198;2024-01-30T04:19:11;0.10;;;0.10;;
11933;SDS011;6026;48.784;9.198;2024-01-30T04:21:37;0.17;;;0.17;;
11933;SDS011;6026;48.784;9.198;2024-01-30T04:24:02;0.10;;;0.10;;
11933;SDS011;6026;48.784;9.198;2024-01-30T04:26:28;0.10;;;0.10;;
11933;SDS011;6026;48.784;9.198;2024-01-30T04:28:54;0.10;;;0.10;;
11933;SDS011;6026;48.784;9.198;2024-01-30T04:31:19;0.10;;;0.10;;
11933;SDS011;6026;48.784;9.198;2024-01-30T04:33:45;0.10;;;0.10;;
11933;SDS011;6026;48.784;9.198;2024-01-30T04:36:10;0.10;;;0.10;;
11933;SDS011;6026;48.784;9.198;2024-01-30T04:38:36;0.10;;;0.10;;
11933;SDS011;6026;48.784;9.198;2024-01-30T04:41:03;0.10;;;0.10;;
11933;SDS011;6026;48.784;9.198;2024-01-30T04:43:29;0.10;;;0.10;;
11933;SDS011;6026;48.784;9.198;2024-01-30T04:45:55;0.10;;;0.10;;
11933;SDS011;6026;48.784;9.198;2024-01-30T04:48:20;0.10;;;0.10;;
11933;SDS011;6026;48.784;9.198;2024-01-30T04:50:46;0.10;;;0.10;;
11933;SDS011;6026;48.784;9.198;2024-01-30T04:53:11;0.10;;;0.10;;
11933;SDS011;6026;48.784;9.198;2024-01-30T04:55:37;0.20;;;0.20;;
11933;SDS011;6026;48.784;9.198;2024-01-30T04:58:03;0.10;;;0.10;;
11933;SDS011;6026;48.784;9.198;2024-01-30T05:00:28;0.10;;;0.10;;
11933;SDS011;6026;48.784;9.198;2024-01-30T05:02:57;0.03;;;0.03;;
11933;SDS011;6026;48.784;9.198;2024-01-30T05:05:22;3.63;;;3.33;;
11933;SDS011;6026;48.784;9.198;2024-01-30T05:07:48;0.10;;;0.10;;
11933;SDS011;6026;48.784;9.198;2024-01-30T05:10:14;0.10;;;0.10;;
11933;SDS011;6026;48.784;9.198;2024-01-30T05:12:40;0.10;;;0.10;;
11933;SDS011;6026;48.784;9.198;2024-01-30T05:15:05;0.10;;;0.10;;
11933;SDS011;6026;48.784;9.198;2024-01-30T05:17:31;0.10;;;0.10;;
11933;SDS011;6026;48.784;9.198;2024-01-30T05:19:57;0.10;;;0.10;;
11933;SDS011;6026;48.784;9.198;2024-01-30T05:22:22;0.10;;;0.10;;
11933;SDS011;6026;48.784;9.198;2024-01-30T05:24:48;0.10;;;0.10;;
11933;SDS011;6026;48.784;9.198;2024-01-30T05:27:13;0.20;;;0.20;;
11933;SDS011;6026;48.784;9.198;2024-01-30T05:29:39;0.20;;;0.20;;
11933;SDS011;6026;48.784;9.198;2024-01-30T05:32:06;0.10;;;0.10;;
11933;SDS011;6026;48.784;9.198;2024-01-30T05:34:31;0.10;;;0.10;;
11933;SDS011;6026;48.784;9.198;2024-01-30T05:36:57;0.10;;;0.10;;
11933;SDS011;6026;48.784;9.198;2024-01-30T05:39:23;0.00;;;0.00;;
11933;SDS011;6026;48.784;9.198;2024-01-30T05:41:48;0.10;;;0.10;;
11933;SDS011;6026;48.784;9.198;2024-01-30T05:44:14;0.10;;;0.10;;
11933;SDS011;6026;48.784;9.198;2024-01-30T05:46:39;0.10;;;0.10;;
11933;SDS011;6026;48.784;9.198;2024-01-30T05:49:05;0.10;;;0.10;;
11933;SDS011;6026;48.784;9.198;2024-01-30T05:51:31;0.10;;;0.10;;
11933;SDS011;6026;48.784;9.198;2024-01-30T05:53:56;0.10;;;0.10;;
11933;SDS011;6026;48.784;9.198;2024-01-30T05:56:22;0.10;;;0.10;;
11933;SDS011;6026;48.784;9.198;2024-01-30T05:58:47;0.20;;;0.20;;
11933;SDS011;6026;48.784;9.198;2024-01-30T06:01:15;0.10;;;0.10;;
11933;SDS011;6026;48.784;9.198;2024-01-30T06:03:40;0.10;;;0.10;;
11933;SDS011;6026;48.784;9.198;2024-01-30T06:06:08;0.67;;;0.67;;
11933;SDS011;6026;48.784;9.198;2024-01-30T06:08:34;0.10;;;0.10;;
11933;SDS011;6026;48.784;9.198;2024-01-30T06:10:59;0.13;;;0.13;;
11933;SDS011;6026;48.784;9.198;2024-01-30T06:13:25;0.10;;;0.10;;
11933;SDS011;6026;48.784;9.198;2024-01-30T06:15:51;0.10;;;0.10;;
11933;SDS011;6026;48.784;9.198;2024-01-30T06:18:17;0.10;;;0.10;;
11933;SDS011;6026;48.784;9.198;2024-01-30T06:20:42;0.10;;;0.10;;
11933;SDS011;6026;48.784;9.198;2024-01-30T06:23:08;0.10;;;0.10;;
11933;SDS011;6026;48.784;9.198;2024-01-30T06:25:34;0.10;;;0.10;;
11933;SDS011;6026;48.784;9.198;2024-01-30T06:27:59;0.10;;;0.10;;
11933;SDS011;6026;48.784;9.198;2024-01-30T06:30:25;0.10;;;0.10;;
11933;SDS011;6026;48.784;9.198;2024-01-30T06:32:50;0.10;;;0.10;;
11933;SDS011;6026;48.784;9.198;2024-01-30T06:35:16;0.10;;;0.10;;
11933;SDS011;6026;48.784;9.198;2024-01-30T06:37:42;0.10;;;0.10;;
11933;SDS011;6026;48.784;9.198;2024-01-30T06:40:08;0.10;;;0.10;;
11933;SDS011;6026;48.784;9.198;2024-01-30T06:42:34;0.10;;;0.10;;
11933;SDS011;6026;48.784;9.198;2024-01-30T06:45:00;0.10;;;0.10;;
11933;SDS011;6026;48.784;9.198;2024-01-30T06:47:25;0.10;;;0.10;;
11933;SDS011;6026;48.784;9.198;2024-01-30T06:49:51;0.10;;;0.10;;
11933;SDS011;6026;48.784;9.198;2024-01-30T06:52:16;0.10;;;0.10;;
11933;SDS011;6026;48.784;9.198;2024-01-30T06:54:42;0.00;;;0.00;;
11933;SDS011;6026;48.784;9.198;2024-01-30T06:57:07;0.10;;;0.10;;
11933;SDS011;6026;48.784;9.198;2024-01-30T06:59:36;0.10;;;0.10;;
11933;SDS011;6026;48.784;9.198;2024-01-30T07:02:06;0.10;;;0.10;;
11933;SDS011;6026;48.784;9.198;2024-01-30T07:04:32;0.10;;;0.10;;
11933;SDS011;6026;48.784;9.198;2024-01-30T07:06:58;0.20;;;0.20;;
11933;SDS011;6026;48.784;9.198;2024-01-30T07:09:23;0.10;;;0.10;;
11933;SDS011;6026;48.784;9.198;2024-01-30T07:11:49;0.10;;;0.10;;
11933;SDS011;6026;48.784;9.198;2024-01-30T07:14:14;0.00;;;0.00;;
11933;SDS011;6026;48.784;9.198;2024-01-30T07:16:40;0.10;;;0.10;;
11933;SDS011;6026;48.784;9.198;2024-01-30T07:19:05;0.10;;;0.10;;
11933;SDS011;6026;48.784;9.198;2024-01-30T07:21:34;0.03;;;0.03;;
11933;SDS011;6026;48.784;9.198;2024-01-30T07:23:59;0.07;;;0.07;;
11933;SDS011;6026;48.784;9.198;2024-01-30T07:26:25;0.10;;;0.10;;
11933;SDS011;6026;48.784;9.198;2024-01-30T07:28:50;0.10;;;0.10;;
11933;SDS011;6026;48.784;9.198;2024-01-30T07:31:16;0.10;;;0.10;;
11933;SDS011;6026;48.784;9.198;2024-01-30T07:33:42;0.20;;;0.20;;
11933;SDS011;6026;48.784;9.198;2024-01-30T07:36:07;0.20;;;0.20;;
11933;SDS011;6026;48.784;9.198;2024-01-30T07:38:33;0.10;;;0.10;;
11933;SDS011;6026;48.784;9.198;2024-01-30T07:40:59;0.10;;;0.10;;
11933;SDS011;6026;48.784;9.198;2024-01-30T07:43:24;0.10;;;0.10;;
11933;SDS011;6026;48.784;9.198;2024-01-30T07:45:50;0.00;;;0.00;;
11933;SDS011;6026;48.784;9.198;2024-01-30T07:48:16;0.10;;;0.10;;
11933;SDS011;6026;48.784;9.198;2024-01-30T07:50:42;0.10;;;0.10;;
11933;SDS011;6026;48.784;9.198;2024-01-30T07:53:07;0.10;;;0.10;;
11933;SDS011;6026;48.784;9.198;2024-01-30T07:55:33;0.10;;;0.10;;
11933;SDS011;6026;48.784;9.198;2024-01-30T07:57:58;0.10;;;0.10;;
11933;SDS011;6026;48.784;9.198;2024-01-30T08:00:25;0.10;;;0.10;;
11933;SDS011;6026;48.784;9.198;2024-01-30T08:02:50;0.20;;;0.20;;
11933;SDS011;6026;48.784;9.198;2024-01-30T08:05:19;0.10;;;0.10;;
11933;SDS011;6026;48.784;9.198;2024-01-30T08:07:44;0.10;;;0.10;;
11933;SDS011;6026;48.784;9.198;2024-01-30T08:10:11;0.10;;;0.10;;
11933;SDS011;6026;48.784;9.198;2024-01-30T08:12:38;0.10;;;0.10;;
11933;SDS011;6026;48.784;9.198;2024-01-30T08:15:04;0.20;;;0.20;;
11933;SDS011;6026;48.784;9.198;2024-01-30T08:17:30;0.10;;;0.10;;
11933;SDS011;6026;48.784;9.198;2024-01-30T08:19:55;0.10;;;0.10;;
11933;SDS011;6026;48.784;9.198;2024-01-30T08:22:21;0.20;;;0.20;;
11933;SDS011;6026;48.784;9.198;2024-01-30T08:24:47;0.10;;;0.10;;
11933;SDS011;6026;48.784;9.198;2024-01-30T08:27:12;0.23;;;0.23;;
11933;SDS011;6026;48.784;9.198;2024-01-30T08:29:38;0.10;;;0.10;;
11933;SDS011;6026;48.784;9.198;2024-01-30T08:32:04;0.20;;;0.20;;
11933;SDS011;6026;48.784;9.198;2024-01-30T08:34:30;0.20;;;0.20;;
11933;SDS011;6026;48.784;9.198;2024-01-30T08:36:56;0.20;;;0.20;;
11933;SDS011;6026;48.784;9.198;2024-01-30T08:39:21;0.20;;;0.20;;
11933;SDS011;6026;48.784;9.198;2024-01-30T08:41:47;0.30;;;0.30;;
11933;SDS011;6026;48.784;9.198;2024-01-30T08:44:12;0.20;;;0.20;;
11933;SDS011;6026;48.784;9.198;2024-01-30T08:46:38;0.67;;;0.67;;
11933;SDS011;6026;48.784;9.198;2024-01-30T08:49:04;0.50;;;0.50;;
11933;SDS011;6026;48.784;9.198;2024-01-30T08:51:29;0.60;;;0.60;;
11933;SDS011;6026;48.784;9.198;2024-01-30T08:53:55;0.50;;;0.50;;
11933;SDS011;6026;48.784;9.198;2024-01-30T08:56:21;0.70;;;0.70;;
11933;SDS011;6026;48.784;9.198;2024-01-30T08:58:46;0.50;;;0.50;;
11933;SDS011;6026;48.784;9.198;2024-01-30T09:01:12;0.40;;;0.40;;
11933;SDS011;6026;48.784;9.198;2024-01-30T09:03:38;0.63;;;0.63;;
11933;SDS011;6026;48.784;9.198;2024-01-30T09:06:09;0.63;;;0.63;;
11933;SDS011;6026;48.784;9.198;2024-01-30T09:08:35;0.50;;;0.50;;
11933;SDS011;6026;48.784;9.198;2024-01-30T09:11:00;0.43;;;0.43;;
11933;SDS011;6026;48.784;9.198;2024-01-30T09:13:26;0.47;;;0.47;;
11933;SDS011;6026;48.784;9.198;2024-01-30T09:15:52;0.40;;;0.40;;
11933;SDS011;6026;48.784;9.198;2024-01-30T09:18:18;0.67;;;0.67;;
11933;SDS011;6026;48.784;9.198;2024-01-30T09:20:43;0.20;;;0.20;;
11933;SDS011;6026;48.784;9.198;2024-01-30T09:23:12;0.60;;;0.60;;
11933;SDS011;6026;48.784;9.198;2024-01-30T09:25:38;0.40;;;0.40;;
11933;SDS011;6026;48.784;9.198;2024-01-30T09:28:03;0.60;;;0.60;;
11933;SDS011;6026;48.784;9.198;2024-01-30T09:30:30;0.60;;;0.60;;
11933;SDS011;6026;48.784;9.198;2024-01-30T09:32:55;0.50;;;0.50;;
11933;SDS011;6026;48.784;9.198;2024-01-30T09:35:21;0.63;;;0.63;;
11933;SDS011;6026;48.784;9.198;2024-01-30T09:37:46;0.70;;;0.70;;
11933;SDS011;6026;48.784;9.198;2024-01-30T09:40:13;0.60;;;0.60;;
11933;SDS011;6026;48.784;9.198;2024-01-30T09:42:39;0.70;;;0.70;;
11933;SDS011;6026;48.784;9.198;2024-01-30T09:45:07;0.70;;;0.70;;
11933;SDS011;6026;48.784;9.198;2024-01-30T09:47:38;0.70;;;0.70;;
11933;SDS011;6026;48.784;9.198;2024-01-30T09:50:09;0.50;;;0.50;;
11933;SDS011;6026;48.784;9.198;2024-01-30T09:52:35;0.60;;;0.60;;
11933;SDS011;6026;48.784;9.198;2024-01-30T09:55:02;0.70;;;0.70;;
11933;SDS011;6026;48.784;9.198;2024-01-30T09:57:28;0.80;;;0.80;;
11933;SDS011;6026;48.784;9.198;2024-01-30T09:59:53;0.70;;;0.70;;
11933;SDS011;6026;48.784;9.198;2024-01-30T10:02:19;0.70;;;0.70;;
11933;SDS011;6026;48.784;9.198;2024-01-30T10:04:49;0.80;;;0.80;;
11933;SDS011;6026;48.784;9.198;2024-01-30T10:07:16;0.80;;;0.80;;
11933;SDS011;6026;48.784;9.198;2024-01-30T10:09:42;0.73;;;0.73;;
11933;SDS011;6026;48.784;9.198;2024-01-30T10:12:10;0.50;;;0.50;;
11933;SDS011;6026;48.784;9.198;2024-01-30T10:14:40;0.70;;;0.70;;
11933;SDS011;6026;48.784;9.198;2024-01-30T10:17:10;0.70;;;0.70;;
11933;SDS011;6026;48.784;9.198;2024-01-30T10:19:37;0.70;;;0.70;;
11933;SDS011;6026;48.784;9.198;2024-01-30T10:22:06;0.70;;;0.70;;
11933;SDS011;6026;48.784;9.198;2024-01-30T10:24:33;0.60;;;0.60;;
11933;SDS011;6026;48.784;9.198;2024-01-30T10:26:59;0.80;;;0.80;;
11933;SDS011;6026;48.784;9.198;2024-01-30T10:29:24;0.70;;;0.70;;
11933;SDS011;6026;48.784;9.198;2024-01-30T10:31:57;0.60;;;0.60;;
11933;SDS011;6026;48.784;9.198;2024-01-30T10:34:27;0.50;;;0.50;;
11933;SDS011;6026;48.784;9.198;2024-01-30T10:37:00;0.60;;;0.60;;
11933;SDS011;6026;48.784;9.198;2024-01-30T10:39:30;0.57;;;0.57;;
11933;SDS011;6026;48.784;9.198;2024-01-30T10:42:01;0.70;;;0.70;;
11933;SDS011;6026;48.784;9.198;2024-01-30T10:44:30;0.70;;;0.70;;
11933;SDS011;6026;48.784;9.198;2024-01-30T10:47:03;0.80;;;0.80;;
11933;SDS011;6026;48.784;9.198;2024-01-30T10:49:33;0.67;;;0.67;;
11933;SDS011;6026;48.784;9.198;2024-01-30T10:51:59;0.70;;;0.70;;
11933;SDS011;6026;48.784;9.198;2024-01-30T10:54:25;0.70;;;0.70;;
11933;SDS011;6026;48.784;9.198;2024-01-30T10:56:52;0.70;;;0.70;;
11933;SDS011;6026;48.784;9.198;2024-01-30T10:59:18;0.67;;;0.67;;
11933;SDS011;6026;48.784;9.198;2024-01-30T11:01:45;0.60;;;0.60;;
11933;SDS011;6026;48.784;9.198;2024-01-30T11:04:11;0.60;;;0.60;;
11933;SDS011;6026;48.784;9.198;2024-01-30T11:06:42;0.70;;;0.70;;
11933;SDS011;6026;48.784;9.198;2024-01-30T11:09:10;0.60;;;0.60;;
11933;SDS011;6026;48.784;9.198;2024-01-30T11:11:50;0.60;;;0.60;;
11933;SDS011;6026;48.784;9.198;2024-01-30T11:14:34;0.70;;;0.70;;
11933;SDS011;6026;48.784;9.198;2024-01-30T11:16:59;0.60;;;0.60;;
11933;SDS011;6026;48.784;9.198;2024-01-30T11:19:25;0.90;;;0.90;;
11933;SDS011;6026;48.784;9.198;2024-01-30T11:21:55;0.70;;;0.70;;
11933;SDS011;6026;48.784;9.198;2024-01-30T11:24:22;0.80;;;0.80;;
11933;SDS011;6026;48.784;9.198;2024-01-30T11:27:01;0.63;;;0.63;;
11933;SDS011;6026;48.784;9.198;2024-01-30T11:29:33;0.70;;;0.70;;
11933;SDS011;6026;48.784;9.198;2024-01-30T11:32:00;0.80;;;0.80;;
11933;SDS011;6026;48.784;9.198;2024-01-30T11:34:26;0.67;;;0.67;;
11933;SDS011;6026;48.784;9.198;2024-01-30T11:36:58;0.60;;;0.60;;
11933;SDS011;6026;48.784;9.198;2024-01-30T11:39:31;0.63;;;0.63;;
11933;SDS011;6026;48.784;9.198;2024-01-30T11:41:57;0.60;;;0.60;;
11933;SDS011;6026;48.784;9.198;2024-01-30T11:44:24;0.80;;;0.80;;
11933;SDS011;6026;48.784;9.198;2024-01-30T11:46:51;0.60;;;0.60;;
11933;SDS011;6026;48.784;9.198;2024-01-30T11:49:17;0.60;;;0.60;;
11933;SDS011;6026;48.784;9.198;2024-01-30T11:51:45;0.70;;;0.70;;
11933;SDS011;6026;48.784;9.198;2024-01-30T11:54:13;0.80;;;0.80;;
11933;SDS011;6026;48.784;9.198;2024-01-30T11:56:39;0.60;;;0.60;;
11933;SDS011;6026;48.784;9.198;2024-01-30T11:59:05;0.70;;;0.70;;
11933;SDS011;6026;48.784;9.198;2024-01-30T12:01:31;0.63;;;0.63;;
11933;SDS011;6026;48.784;9.198;2024-01-30T12:03:57;0.70;;;0.70;;
11933;SDS011;6026;48.784;9.198;2024-01-30T12:06:23;0.70;;;0.70;;
11933;SDS011;6026;48.784;9.198;2024-01-30T12:08:58;0.80;;;0.80;;
11933;SDS011;6026;48.784;9.198;2024-01-30T12:11:25;0.80;;;0.80;;
11933;SDS011;6026;48.784;9.198;2024-01-30T12:13:51;0.80;;;0.80;;
11933;SDS011;6026;48.784;9.198;2024-01-30T12:19:40;0.80;;;0.80;;
11933;SDS011;6026;48.784;9.198;2024-01-30T12:22:05;0.60;;;0.60;;
11933;SDS011;6026;48.784;9.198;2024-01-30T12:24:31;0.80;;;0.80;;
11933;SDS011;6026;48.784;9.198;2024-01-30T12:26:57;0.80;;;0.80;;
11933;SDS011;6026;48.784;9.198;2024-01-30T12:29:23;0.70;;;0.70;;
11933;SDS011;6026;48.784;9.198;2024-01-30T12:31:52;0.90;;;0.90;;
11933;SDS011;6026;48.784;9.198;2024-01-30T12:34:18;0.80;;;0.80;;
11933;SDS011;6026;48.784;9.198;2024-01-30T12:36:46;0.80;;;0.80;;
11933;SDS011;6026;48.784;9.198;2024-01-30T12:39:12;0.80;;;0.80;;
11933;SDS011;6026;48.784;9.198;2024-01-30T12:41:39;0.80;;;0.80;;
11933;SDS011;6026;48.784;9.198;2024-01-30T12:44:05;0.80;;;0.80;;
11933;SDS011;6026;48.784;9.198;2024-01-30T12:46:31;0.70;;;0.70;;
11933;SDS011;6026;48.784;9.198;2024-01-30T12:48:58;0.80;;;0.80;;
11933;SDS011;6026;48.784;9.198;2024-01-30T12:51:24;0.77;;;0.77;;
11933;SDS011;6026;48.784;9.198;2024-01-30T12:53:49;0.70;;;0.70;;
11933;SDS011;6026;48.784;9.198;2024-01-30T12:56:15;0.73;;;0.73;;
11933;SDS011;6026;48.784;9.198;2024-01-30T12:58:41;0.70;;;0.70;;
11933;SDS011;6026;48.784;9.198;2024-01-30T13:01:08;0.90;;;0.90;;
11933;SDS011;6026;48.784;9.198;2024-01-30T13:03:33;0.90;;;0.90;;
11933;SDS011;6026;48.784;9.198;2024-01-30T13:05:59;0.80;;;0.80;;
11933;SDS011;6026;48.784;9.198;2024-01-30T13:08:25;0.80;;;0.80;;
11933;SDS011;6026;48.784;9.198;2024-01-30T13:10:50;0.70;;;0.70;;
11933;SDS011;6026;48.784;9.198;2024-01-30T13:13:16;0.80;;;0.80;;
11933;SDS011;6026;48.784;9.198;2024-01-30T13:15:42;0.70;;;0.70;;
11933;SDS011;6026;48.784;9.198;2024-01-30T13:18:07;0.90;;;0.90;;
11933;SDS011;6026;48.784;9.198;2024-01-30T13:20:33;0.80;;;0.80;;
11933;SDS011;6026;48.784;9.198;2024-01-30T13:22:59;0.80;;;0.80;;
11933;SDS011;6026;48.784;9.198;2024-01-30T13:25:24;1.13;;;1.13;;
11933;SDS011;6026;48.784;9.198;2024-01-30T13:27:50;0.80;;;0.80;;
11933;SDS011;6026;48.784;9.198;2024-01-30T13:30:15;0.80;;;0.80;;
11933;SDS011;6026;48.784;9.198;2024-01-30T13:32:41;0.90;;;0.90;;
11933;SDS011;6026;48.784;9.198;2024-01-30T13:35:09;0.57;;;0.57;;
11933;SDS011;6026;48.784;9.198;2024-01-30T13:37:34;0.97;;;0.97;;
11933;SDS011;6026;48.784;9.198;2024-01-30T13:40:01;0.80;;;0.80;;
11933;SDS011;6026;48.784;9.198;2024-01-30T13:42:32;0.80;;;0.80;;
11933;SDS011;6026;48.784;9.198;2024-01-30T13:44:57;0.80;;;0.80;;
11933;SDS011;6026;48.784;9.198;2024-01-30T13:47:23;0.90;;;0.90;;
11933;SDS011;6026;48.784;9.198;2024-01-30T13:49:49;0.80;;;0.80;;
11933;SDS011;6026;48.784;9.198;2024-01-30T13:52:14;0.80;;;0.80;;
11933;SDS011;6026;48.784;9.198;2024-01-30T13:54:40;0.80;;;0.80;;
11933;SDS011;6026;48.784;9.198;2024-01-30T13:57:05;0.90;;;0.90;;
11933;SDS011;6026;48.784;9.198;2024-01-30T13:59:32;0.83;;;0.83;;
11933;SDS011;6026;48.784;9.198;2024-01-30T14:01:58;0.80;;;0.80;;
11933;SDS011;6026;48.784;9.198;2024-01-30T14:04:23;0.70;;;0.70;;
11933;SDS011;6026;48.784;9.198;2024-01-30T14:06:49;0.80;;;0.80;;
11933;SDS011;6026;48.784;9.198;2024-01-30T14:09:15;0.70;;;0.70;;
11933;SDS011;6026;48.784;9.198;2024-01-30T14:11:41;0.90;;;0.90;;
11933;SDS011;6026;48.784;9.198;2024-01-30T14:14:06;0.80;;;0.80;;
11933;SDS011;6026;48.784;9.198;2024-01-30T14:16:32;0.80;;;0.80;;
11933;SDS011;6026;48.784;9.198;2024-01-30T14:18:58;1.10;;;1.10;;
11933;SDS011;6026;48.784;9.198;2024-01-30T14:21:23;0.87;;;0.87;;
11933;SDS011;6026;48.784;9.198;2024-01-30T14:23:49;0.73;;;0.73;;
11933;SDS011;6026;48.784;9.198;2024-01-30T14:26:14;0.80;;;0.80;;
11933;SDS011;6026;48.784;9.198;2024-01-30T14:28:40;0.63;;;0.63;;
11933;SDS011;6026;48.784;9.198;2024-01-30T14:31:06;0.90;;;0.90;;
11933;SDS011;6026;48.784;9.198;2024-01-30T14:33:31;0.80;;;0.80;;
11933;SDS011;6026;48.784;9.198;2024-01-30T14:35:57;0.80;;;0.80;;
11933;SDS011;6026;48.784;9.198;2024-01-30T14:38:22;0.80;;;0.80;;
11933;SDS011;6026;48.784;9.198;2024-01-30T14:40:50;0.60;;;0.60;;
11933;SDS011;6026;48.784;9.198;2024-01-30T14:43:15;0.80;;;0.80;;
11933;SDS011;6026;48.784;9.198;2024-01-30T14:45:41;0.70;;;0.70;;
11933;SDS011;6026;48.784;9.198;2024-01-30T14:48:07;0.70;;;0.70;;
11933;SDS011;6026;48.784;9.198;2024-01-30T14:50:33;0.70;;;0.70;;
11933;SDS011;6026;48.784;9.198;2024-01-30T14:52:59;0.70;;;0.70;;
11933;SDS011;6026;48.784;9.198;2024-01-30T14:55:25;0.67;;;0.67;;
11933;SDS011;6026;48.784;9.198;2024-01-30T14:57:50;0.83;;;0.83;;